sensor_id;sensor_type;location;lat;lon;timestamp;pressure;altitude;pressure_sealevel;temperature;humidity
7105;BME280;3594;42.152;24.714;2022-10-16T00:01:30;-24118.03;;;10.78;nan
7105;BME280;3594;42.152;24.714;2022-10-16T00:03:58;-24118.75;;;10.80;nan
7105;BME280;3594;42.152;24.714;2022-10-16T00:06:24;-24113.81;;;10.62;nan
7105;BME280;3594;42.152;24.714;2022-10-16T00:08:51;-24107.47;;;10.40;nan
7105;BME280;3594;42.152;24.714;2022-10-16T00:11:29;-24103.38;;;10.25;nan
7105;BME280;3594;42.152;24.714;2022-10-16T00:13:57;-24097.44;;;10.04;nan
7105;BME280;3594;42.152;24.714;2022-10-16T00:16:23;-24092.91;;;9.88;nan
7105;BME280;3594;42.152;24.714;2022-10-16T00:18:48;-24087.97;;;9.70;nan
7105;BME280;3594;42.152;24.714;2022-10-16T00:21:16;-24097.88;;;10.05;nan
7105;BME280;3594;42.152;24.714;2022-10-16T00:23:43;-24086.13;;;9.63;nan
7105;BME280;3594;42.152;24.714;2022-10-16T00:26:12;-24094.34;;;9.93;nan
7105;BME280;3594;42.152;24.714;2022-10-16T00:28:38;-24092.06;;;9.85;nan
7105;BME280;3594;42.152;24.714;2022-10-16T00:31:11;-24087.56;;;9.68;nan
7105;BME280;3594;42.152;24.714;2022-10-16T00:33:38;-24082.91;;;9.52;nan
7105;BME280;3594;42.152;24.714;2022-10-16T00:36:06;-24078.50;;;9.36;nan
7105;BME280;3594;42.152;24.714;2022-10-16T00:38:33;-24076.66;;;9.29;nan
7105;BME280;3594;42.152;24.714;2022-10-16T00:40:58;-24080.34;;;9.43;nan
7105;BME280;3594;42.152;24.714;2022-10-16T00:46:16;-24074.69;;;9.22;nan
7105;BME280;3594;42.152;24.714;2022-10-16T00:48:50;-24083.88;;;9.55;nan
7105;BME280;3594;42.152;24.714;2022-10-16T00:51:19;-24081.47;;;9.47;nan
7105;BME280;3594;42.152;24.714;2022-10-16T00:53:46;-24083.75;;;9.55;nan
7105;BME280;3594;42.152;24.714;2022-10-16T00:56:11;-24073.13;;;9.17;nan
7105;BME280;3594;42.152;24.714;2022-10-16T00:58:37;-24076.38;;;9.28;nan
7105;BME280;3594;42.152;24.714;2022-10-16T01:01:02;-24075.69;;;9.26;nan
7105;BME280;3594;42.152;24.714;2022-10-16T01:03:30;-24080.91;;;9.45;nan
7105;BME280;3594;42.152;24.714;2022-10-16T01:06:16;-24085.44;;;9.61;nan
7105;BME280;3594;42.152;24.714;2022-10-16T01:11:45;-24073.28;;;9.17;nan
7105;BME280;3594;42.152;24.714;2022-10-16T01:14:23;-24075.97;;;9.27;nan
7105;BME280;3594;42.152;24.714;2022-10-16T01:17:21;-24075.97;;;9.27;nan
7105;BME280;3594;42.152;24.714;2022-10-16T01:23:04;-24071.44;;;9.11;nan
7105;BME280;3594;42.152;24.714;2022-10-16T01:28:21;-24067.34;;;8.96;nan
7105;BME280;3594;42.152;24.714;2022-10-16T01:30:50;-24066.34;;;8.93;nan
7105;BME280;3594;42.152;24.714;2022-10-16T01:33:24;-24071.44;;;9.11;nan
7105;BME280;3594;42.152;24.714;2022-10-16T01:35:55;-24064.22;;;8.85;nan
7105;BME280;3594;42.152;24.714;2022-10-16T01:38:43;-24046.81;;;8.23;nan
7105;BME280;3594;42.152;24.714;2022-10-16T01:41:17;-24061.25;;;8.74;nan
7105;BME280;3594;42.152;24.714;2022-10-16T01:44:02;-24058.00;;;8.63;nan
7105;BME280;3594;42.152;24.714;2022-10-16T01:46:30;-24065.78;;;8.91;nan
7105;BME280;3594;42.152;24.714;2022-10-16T01:48:57;-24066.22;;;8.92;nan
7105;BME280;3594;42.152;24.714;2022-10-16T01:51:24;-24057.56;;;8.61;nan
7105;BME280;3594;42.152;24.714;2022-10-16T01:53:54;-24059.56;;;8.68;nan
7105;BME280;3594;42.152;24.714;2022-10-16T01:56:22;-24064.38;;;8.85;nan
7105;BME280;3594;42.152;24.714;2022-10-16T01:58:54;-24064.78;;;8.87;nan
7105;BME280;3594;42.152;24.714;2022-10-16T02:01:23;-24060.25;;;8.71;nan
7105;BME280;3594;42.152;24.714;2022-10-16T02:03:54;-24061.53;;;8.75;nan
7105;BME280;3594;42.152;24.714;2022-10-16T02:06:21;-24047.25;;;8.24;nan
7105;BME280;3594;42.152;24.714;2022-10-16T02:08:48;-24046.81;;;8.23;nan
7105;BME280;3594;42.152;24.714;2022-10-16T02:11:13;-24055.47;;;8.54;nan
7105;BME280;3594;42.152;24.714;2022-10-16T02:13:46;-24050.94;;;8.37;nan
7105;BME280;3594;42.152;24.714;2022-10-16T02:16:13;-24054.59;;;8.51;nan
7105;BME280;3594;42.152;24.714;2022-10-16T02:18:40;-24052.34;;;8.42;nan
7105;BME280;3594;42.152;24.714;2022-10-16T02:21:26;-24053.63;;;8.47;nan
7105;BME280;3594;42.152;24.714;2022-10-16T02:29:19;-24037.75;;;7.90;nan
7105;BME280;3594;42.152;24.714;2022-10-16T02:31:48;-24037.75;;;7.90;nan
7105;BME280;3594;42.152;24.714;2022-10-16T02:34:16;-24035.78;;;7.83;nan
7105;BME280;3594;42.152;24.714;2022-10-16T02:36:44;-24030.94;;;7.66;nan
7105;BME280;3594;42.152;24.714;2022-10-16T02:39:11;-24026.84;;;7.51;nan
7105;BME280;3594;42.152;24.714;2022-10-16T02:41:37;-24026.84;;;7.51;nan
7105;BME280;3594;42.152;24.714;2022-10-16T02:44:02;-24032.78;;;7.73;nan
7105;BME280;3594;42.152;24.714;2022-10-16T02:46:28;-24029.53;;;7.61;nan
7105;BME280;3594;42.152;24.714;2022-10-16T02:48:53;-24029.69;;;7.62;nan
7105;BME280;3594;42.152;24.714;2022-10-16T02:51:19;-24034.34;;;7.78;nan
7105;BME280;3594;42.152;24.714;2022-10-16T02:53:44;-24033.50;;;7.75;nan
7105;BME280;3594;42.152;24.714;2022-10-16T02:56:10;-24034.50;;;7.79;nan
7105;BME280;3594;42.152;24.714;2022-10-16T02:58:35;-24034.91;;;7.80;nan
7105;BME280;3594;42.152;24.714;2022-10-16T03:01:01;-23986.97;;;6.09;nan
7105;BME280;3594;42.152;24.714;2022-10-16T03:03:26;-24031.53;;;7.68;nan
7105;BME280;3594;42.152;24.714;2022-10-16T03:05:52;-24034.34;;;7.78;nan
7105;BME280;3594;42.152;24.714;2022-10-16T03:08:17;-24030.09;;;7.63;nan
7105;BME280;3594;42.152;24.714;2022-10-16T03:10:48;-24011.09;;;6.95;nan
7105;BME280;3594;42.152;24.714;2022-10-16T03:13:13;-24027.41;;;7.53;nan
7105;BME280;3594;42.152;24.714;2022-10-16T03:15:39;-24033.78;;;7.76;nan
7105;BME280;3594;42.152;24.714;2022-10-16T03:18:04;-24022.31;;;7.35;nan
7105;BME280;3594;42.152;24.714;2022-10-16T03:20:29;-24020.47;;;7.29;nan
7105;BME280;3594;42.152;24.714;2022-10-16T03:22:55;-24028.97;;;7.59;nan
7105;BME280;3594;42.152;24.714;2022-10-16T03:25:20;-24028.97;;;7.59;nan
7105;BME280;3594;42.152;24.714;2022-10-16T03:27:45;-24022.59;;;7.36;nan
7105;BME280;3594;42.152;24.714;2022-10-16T03:30:11;-24024.72;;;7.44;nan
7105;BME280;3594;42.152;24.714;2022-10-16T03:32:37;-24022.44;;;7.36;nan
7105;BME280;3594;42.152;24.714;2022-10-16T03:35:02;-24014.22;;;7.06;nan
7105;BME280;3594;42.152;24.714;2022-10-16T03:37:28;-24021.31;;;7.32;nan
7105;BME280;3594;42.152;24.714;2022-10-16T03:39:53;-24014.50;;;7.07;nan
7105;BME280;3594;42.152;24.714;2022-10-16T03:42:19;-24015.06;;;7.09;nan
7105;BME280;3594;42.152;24.714;2022-10-16T03:44:44;-24022.59;;;7.36;nan
7105;BME280;3594;42.152;24.714;2022-10-16T03:47:10;-24013.38;;;7.03;nan
7105;BME280;3594;42.152;24.714;2022-10-16T03:49:35;-24027.28;;;7.53;nan
7105;BME280;3594;42.152;24.714;2022-10-16T03:52:00;-24019.91;;;7.27;nan
7105;BME280;3594;42.152;24.714;2022-10-16T03:54:26;-24023.59;;;7.40;nan
7105;BME280;3594;42.152;24.714;2022-10-16T03:56:51;-24018.63;;;7.22;nan
7105;BME280;3594;42.152;24.714;2022-10-16T03:59:17;-24026.13;;;7.49;nan
7105;BME280;3594;42.152;24.714;2022-10-16T04:01:42;-23999.47;;;6.54;nan
7105;BME280;3594;42.152;24.714;2022-10-16T04:04:08;-24016.22;;;7.14;nan
7105;BME280;3594;42.152;24.714;2022-10-16T04:06:33;-24015.50;;;7.11;nan
7105;BME280;3594;42.152;24.714;2022-10-16T04:08:59;-24022.31;;;7.35;nan
7105;BME280;3594;42.152;24.714;2022-10-16T04:11:24;-24023.88;;;7.41;nan
7105;BME280;3594;42.152;24.714;2022-10-16T04:13:49;-24019.03;;;7.24;nan
7105;BME280;3594;42.152;24.714;2022-10-16T04:16:15;-24017.91;;;7.20;nan
7105;BME280;3594;42.152;24.714;2022-10-16T04:18:40;-24013.94;;;7.05;nan
7105;BME280;3594;42.152;24.714;2022-10-16T04:21:06;-24010.41;;;6.93;nan
7105;BME280;3594;42.152;24.714;2022-10-16T04:23:32;-24000.03;;;6.56;nan
7105;BME280;3594;42.152;24.714;2022-10-16T04:25:57;-24009.69;;;6.90;nan
7105;BME280;3594;42.152;24.714;2022-10-16T04:28:23;-24008.97;;;6.88;nan
7105;BME280;3594;42.152;24.714;2022-10-16T04:30:48;-24008.41;;;6.86;nan
7105;BME280;3594;42.152;24.714;2022-10-16T04:33:14;-24011.38;;;6.96;nan
7105;BME280;3594;42.152;24.714;2022-10-16T04:35:39;-24004.44;;;6.72;nan
7105;BME280;3594;42.152;24.714;2022-10-16T04:38:05;-24002.59;;;6.65;nan
7105;BME280;3594;42.152;24.714;2022-10-16T04:40:30;-24003.00;;;6.66;nan
7105;BME280;3594;42.152;24.714;2022-10-16T04:43:01;-24009.13;;;6.88;nan
7105;BME280;3594;42.152;24.714;2022-10-16T04:45:26;-24011.38;;;6.96;nan
7105;BME280;3594;42.152;24.714;2022-10-16T04:47:51;-24006.13;;;6.78;nan
7105;BME280;3594;42.152;24.714;2022-10-16T04:50:17;-24005.44;;;6.75;nan
7105;BME280;3594;42.152;24.714;2022-10-16T04:52:42;-24013.94;;;7.05;nan
7105;BME280;3594;42.152;24.714;2022-10-16T04:55:08;-24009.41;;;6.89;nan
7105;BME280;3594;42.152;24.714;2022-10-16T04:57:35;-24010.69;;;6.94;nan
7105;BME280;3594;42.152;24.714;2022-10-16T05:00:01;-24015.94;;;7.13;nan
7105;BME280;3594;42.152;24.714;2022-10-16T05:02:28;-24016.22;;;7.14;nan
7105;BME280;3594;42.152;24.714;2022-10-16T05:04:59;-24014.50;;;7.07;nan
7105;BME280;3594;42.152;24.714;2022-10-16T05:07:24;-24019.03;;;7.24;nan
7105;BME280;3594;42.152;24.714;2022-10-16T05:09:50;-24011.94;;;6.98;nan
7105;BME280;3594;42.152;24.714;2022-10-16T05:12:16;-24014.38;;;7.07;nan
7105;BME280;3594;42.152;24.714;2022-10-16T05:14:41;-24027.56;;;7.54;nan
7105;BME280;3594;42.152;24.714;2022-10-16T05:17:07;-24025.00;;;7.45;nan
7105;BME280;3594;42.152;24.714;2022-10-16T05:19:32;-24019.34;;;7.25;nan
7105;BME280;3594;42.152;24.714;2022-10-16T05:21:58;-24027.56;;;7.54;nan
7105;BME280;3594;42.152;24.714;2022-10-16T05:24:23;-24035.78;;;7.83;nan
7105;BME280;3594;42.152;24.714;2022-10-16T05:26:49;-24037.03;;;7.88;nan
7105;BME280;3594;42.152;24.714;2022-10-16T05:29:15;-24041.16;;;8.03;nan
7105;BME280;3594;42.152;24.714;2022-10-16T05:31:40;-24044.13;;;8.13;nan
7105;BME280;3594;42.152;24.714;2022-10-16T05:34:05;-24040.03;;;7.98;nan
7105;BME280;3594;42.152;24.714;2022-10-16T05:36:31;-24046.09;;;8.20;nan
7105;BME280;3594;42.152;24.714;2022-10-16T05:38:56;-24042.56;;;8.08;nan
7105;BME280;3594;42.152;24.714;2022-10-16T05:41:21;-24014.38;;;7.07;nan
7105;BME280;3594;42.152;24.714;2022-10-16T05:43:48;-24052.78;;;8.44;nan
7105;BME280;3594;42.152;24.714;2022-10-16T05:46:15;-24054.31;;;8.50;nan
7105;BME280;3594;42.152;24.714;2022-10-16T05:48:40;-24057.16;;;8.60;nan
7105;BME280;3594;42.152;24.714;2022-10-16T05:51:08;-24057.16;;;8.60;nan
7105;BME280;3594;42.152;24.714;2022-10-16T05:53:36;-24060.69;;;8.72;nan
7105;BME280;3594;42.152;24.714;2022-10-16T05:56:02;-24070.59;;;9.08;nan
7105;BME280;3594;42.152;24.714;2022-10-16T05:58:30;-24077.09;;;9.31;nan
7105;BME280;3594;42.152;24.714;2022-10-16T06:00:58;-24080.50;;;9.43;nan
7105;BME280;3594;42.152;24.714;2022-10-16T06:03:24;-24077.53;;;9.32;nan
7105;BME280;3594;42.152;24.714;2022-10-16T06:05:50;-24087.56;;;9.68;nan
7105;BME280;3594;42.152;24.714;2022-10-16T06:08:16;-24077.09;;;9.31;nan
7105;BME280;3594;42.152;24.714;2022-10-16T06:10:42;-24085.56;;;9.61;nan
7105;BME280;3594;42.152;24.714;2022-10-16T06:13:09;-24093.91;;;9.91;nan
7105;BME280;3594;42.152;24.714;2022-10-16T06:15:34;-24091.50;;;9.83;nan
7105;BME280;3594;42.152;24.714;2022-10-16T06:18:00;-24100.13;;;10.13;nan
7105;BME280;3594;42.152;24.714;2022-10-16T06:20:26;-24097.59;;;10.04;nan
7105;BME280;3594;42.152;24.714;2022-10-16T06:22:51;-24097.03;;;10.02;nan
7105;BME280;3594;42.152;24.714;2022-10-16T06:25:16;-24106.19;;;10.35;nan
7105;BME280;3594;42.152;24.714;2022-10-16T06:27:42;-24099.69;;;10.12;nan
7105;BME280;3594;42.152;24.714;2022-10-16T06:30:08;-24109.03;;;10.45;nan
7105;BME280;3594;42.152;24.714;2022-10-16T06:32:33;-24107.75;;;10.41;nan
7105;BME280;3594;42.152;24.714;2022-10-16T06:34:58;-24111.41;;;10.54;nan
7105;BME280;3594;42.152;24.714;2022-10-16T06:37:24;-24112.97;;;10.59;nan
7105;BME280;3594;42.152;24.714;2022-10-16T06:39:50;-24117.78;;;10.77;nan
7105;BME280;3594;42.152;24.714;2022-10-16T06:42:17;-24129.03;;;11.17;nan
7105;BME280;3594;42.152;24.714;2022-10-16T06:44:43;-24131.59;;;11.26;nan
7105;BME280;3594;42.152;24.714;2022-10-16T06:47:08;-24128.63;;;11.16;nan
7105;BME280;3594;42.152;24.714;2022-10-16T06:49:34;-24131.59;;;11.26;nan
7105;BME280;3594;42.152;24.714;2022-10-16T06:51:59;-24139.63;;;11.55;nan
7105;BME280;3594;42.152;24.714;2022-10-16T06:54:25;-24130.47;;;11.22;nan
7105;BME280;3594;42.152;24.714;2022-10-16T06:56:51;-24112.69;;;10.58;nan
7105;BME280;3594;42.152;24.714;2022-10-16T06:59:16;-24130.47;;;11.22;nan
7105;BME280;3594;42.152;24.714;2022-10-16T07:01:42;-24131.03;;;11.24;nan
7105;BME280;3594;42.152;24.714;2022-10-16T07:04:07;-24134.97;;;11.38;nan
7105;BME280;3594;42.152;24.714;2022-10-16T07:06:33;-24136.81;;;11.45;nan
7105;BME280;3594;42.152;24.714;2022-10-16T07:09:01;-24154.69;;;12.09;nan
7105;BME280;3594;42.152;24.714;2022-10-16T07:11:27;-24074.84;;;9.23;nan
7105;BME280;3594;42.152;24.714;2022-10-16T07:13:53;-24154.81;;;12.10;nan
7105;BME280;3594;42.152;24.714;2022-10-16T07:16:20;-24160.31;;;12.29;nan
7105;BME280;3594;42.152;24.714;2022-10-16T07:18:46;-24166.22;;;12.51;nan
7105;BME280;3594;42.152;24.714;2022-10-16T07:21:18;-24164.13;;;12.43;nan
7105;BME280;3594;42.152;24.714;2022-10-16T07:23:44;-24166.94;;;12.53;nan
7105;BME280;3594;42.152;24.714;2022-10-16T07:26:10;-24177.06;;;12.90;nan
7105;BME280;3594;42.152;24.714;2022-10-16T07:28:36;-24182.53;;;13.09;nan
7105;BME280;3594;42.152;24.714;2022-10-16T07:31:04;-24185.22;;;13.19;nan
7105;BME280;3594;42.152;24.714;2022-10-16T07:33:31;-24186.06;;;13.22;nan
7105;BME280;3594;42.152;24.714;2022-10-16T07:35:56;-24179.44;;;12.98;nan
7105;BME280;3594;42.152;24.714;2022-10-16T07:38:22;-24176.91;;;12.89;nan
7105;BME280;3594;42.152;24.714;2022-10-16T07:40:48;-24192.38;;;13.45;nan
7105;BME280;3594;42.152;24.714;2022-10-16T07:43:20;-24190.69;;;13.39;nan
7105;BME280;3594;42.152;24.714;2022-10-16T07:45:49;-24201.38;;;13.77;nan
7105;BME280;3594;42.152;24.714;2022-10-16T07:48:16;-24194.75;;;13.53;nan
7105;BME280;3594;42.152;24.714;2022-10-16T07:50:42;-24208.25;;;14.02;nan
7105;BME280;3594;42.152;24.714;2022-10-16T07:53:07;-24200.81;;;13.75;nan
7105;BME280;3594;42.152;24.714;2022-10-16T07:55:33;-24206.41;;;13.95;nan
7105;BME280;3594;42.152;24.714;2022-10-16T07:57:58;-24210.50;;;14.10;nan
7105;BME280;3594;42.152;24.714;2022-10-16T08:00:24;-24212.88;;;14.19;nan
7105;BME280;3594;42.152;24.714;2022-10-16T08:02:49;-24215.53;;;14.28;nan
7105;BME280;3594;42.152;24.714;2022-10-16T08:05:15;-24220.72;;;14.47;nan
7105;BME280;3594;42.152;24.714;2022-10-16T08:07:42;-24224.09;;;14.59;nan
7105;BME280;3594;42.152;24.714;2022-10-16T08:10:16;-24225.50;;;14.64;nan
7105;BME280;3594;42.152;24.714;2022-10-16T08:12:42;-24229.13;;;14.77;nan
7105;BME280;3594;42.152;24.714;2022-10-16T08:15:08;-24207.69;;;14.00;nan
7105;BME280;3594;42.152;24.714;2022-10-16T08:17:34;-24216.09;;;14.30;nan
7105;BME280;3594;42.152;24.714;2022-10-16T08:19:59;-24234.31;;;14.96;nan
7105;BME280;3594;42.152;24.714;2022-10-16T08:22:25;-24233.63;;;14.93;nan
7105;BME280;3594;42.152;24.714;2022-10-16T08:24:50;-24239.66;;;15.15;nan
7105;BME280;3594;42.152;24.714;2022-10-16T08:27:15;-24242.16;;;15.24;nan
7105;BME280;3594;42.152;24.714;2022-10-16T08:29:41;-24241.47;;;15.22;nan
7105;BME280;3594;42.152;24.714;2022-10-16T08:32:06;-24244.28;;;15.32;nan
7105;BME280;3594;42.152;24.714;2022-10-16T08:34:32;-24248.19;;;15.46;nan
7105;BME280;3594;42.152;24.714;2022-10-16T08:36:57;-24252.13;;;15.60;nan
7105;BME280;3594;42.152;24.714;2022-10-16T08:39:22;-24257.72;;;15.80;nan
7105;BME280;3594;42.152;24.714;2022-10-16T08:47:26;-24262.06;;;15.96;nan
7105;BME280;3594;42.152;24.714;2022-10-16T08:52:19;-24260.50;;;15.90;nan
7105;BME280;3594;42.152;24.714;2022-10-16T08:54:47;-24262.47;;;15.98;nan
7105;BME280;3594;42.152;24.714;2022-10-16T08:57:19;-24275.88;;;16.46;nan
7105;BME280;3594;42.152;24.714;2022-10-16T08:59:45;-24272.25;;;16.33;nan
7105;BME280;3594;42.152;24.714;2022-10-16T09:02:23;-24281.78;;;16.67;nan
7105;BME280;3594;42.152;24.714;2022-10-16T09:15:34;-24285.53;;;16.81;nan
7105;BME280;3594;42.152;24.714;2022-10-16T09:20:38;-24293.34;;;17.09;nan
7105;BME280;3594;42.152;24.714;2022-10-16T09:23:17;-24290.72;;;17.00;nan
7105;BME280;3594;42.152;24.714;2022-10-16T09:25:46;-24291.69;;;17.03;nan
7105;BME280;3594;42.152;24.714;2022-10-16T09:28:13;-24294.91;;;17.15;nan
7105;BME280;3594;42.152;24.714;2022-10-16T09:30:39;-24305.34;;;17.53;nan
7105;BME280;3594;42.152;24.714;2022-10-16T09:33:09;-24310.53;;;17.72;nan
7105;BME280;3594;42.152;24.714;2022-10-16T09:35:42;-24316.09;;;17.92;nan
7105;BME280;3594;42.152;24.714;2022-10-16T09:38:09;;;;17.95;
7105;BME280;3594;42.152;24.714;2022-10-16T09:40:46;-24326.69;;;18.30;nan
7105;BME280;3594;42.152;24.714;2022-10-16T09:43:26;-24330.88;;;18.45;nan
7105;BME280;3594;42.152;24.714;2022-10-16T09:46:37;-24331.84;;;18.49;nan
7105;BME280;3594;42.152;24.714;2022-10-16T09:48:46;-24329.22;;;18.39;nan
7105;BME280;3594;42.152;24.714;2022-10-16T09:51:33;-24320.00;;;18.06;nan
7105;BME280;3594;42.152;24.714;2022-10-16T09:54:11;-24334.38;;;18.58;nan
7105;BME280;3594;42.152;24.714;2022-10-16T09:56:38;-24335.75;;;18.63;nan
7105;BME280;3594;42.152;24.714;2022-10-16T09:59:20;-24339.94;;;18.78;nan
7105;BME280;3594;42.152;24.714;2022-10-16T10:01:48;-24343.97;;;18.93;nan
7105;BME280;3594;42.152;24.714;2022-10-16T10:04:16;-24346.63;;;19.03;nan
7105;BME280;3594;42.152;24.714;2022-10-16T10:06:51;-24348.84;;;19.11;nan
7105;BME280;3594;42.152;24.714;2022-10-16T10:09:24;-24352.31;;;19.23;nan
7105;BME280;3594;42.152;24.714;2022-10-16T10:11:58;-24349.13;;;19.12;nan
7105;BME280;3594;42.152;24.714;2022-10-16T10:14:31;-24340.91;;;18.82;nan
7105;BME280;3594;42.152;24.714;2022-10-16T10:17:13;-24333.25;;;18.54;nan
7105;BME280;3594;42.152;24.714;2022-10-16T10:19:44;-24345.50;;;18.98;nan
7105;BME280;3594;42.152;24.714;2022-10-16T10:22:16;-24345.78;;;19.00;nan
7105;BME280;3594;42.152;24.714;2022-10-16T10:25:30;-24355.66;;;19.35;nan
7105;BME280;3594;42.152;24.714;2022-10-16T10:55:10;-24364.56;;;19.68;nan
7105;BME280;3594;42.152;24.714;2022-10-16T11:00:41;-24370.13;;;19.88;nan
7105;BME280;3594;42.152;24.714;2022-10-16T11:06:08;-24364.16;;;19.66;nan
7105;BME280;3594;42.152;24.714;2022-10-16T11:08:41;-24364.56;;;19.68;nan
7105;BME280;3594;42.152;24.714;2022-10-16T11:11:25;-24369.72;;;19.87;nan
7105;BME280;3594;42.152;24.714;2022-10-16T11:16:26;-24375.41;;;20.07;nan
7105;BME280;3594;42.152;24.714;2022-10-16T11:21:22;-24376.25;;;20.10;nan
7105;BME280;3594;42.152;24.714;2022-10-16T11:26:27;-24367.34;;;19.78;nan
7105;BME280;3594;42.152;24.714;2022-10-16T11:28:54;-24373.72;;;20.01;nan
7105;BME280;3594;42.152;24.714;2022-10-16T11:31:41;-24374.44;;;20.04;nan
7105;BME280;3594;42.152;24.714;2022-10-16T11:36:57;-24367.06;;;19.77;nan
7105;BME280;3594;42.152;24.714;2022-10-16T11:39:28;-24363.44;;;19.64;nan
7105;BME280;3594;42.152;24.714;2022-10-16T11:42:20;-24360.13;;;19.52;nan
7105;BME280;3594;42.152;24.714;2022-10-16T11:53:59;-24360.13;;;19.52;nan
7105;BME280;3594;42.152;24.714;2022-10-16T11:56:28;-24350.50;;;19.17;nan
7105;BME280;3594;42.152;24.714;2022-10-16T12:04:17;-24355.09;;;19.33;nan
7105;BME280;3594;42.152;24.714;2022-10-16T12:06:52;-24343.00;;;18.89;nan
7105;BME280;3594;42.152;24.714;2022-10-16T12:09:31;-24341.03;;;18.82;nan
7105;BME280;3594;42.152;24.714;2022-10-16T12:11:58;-24343.00;;;18.89;nan
7105;BME280;3594;42.152;24.714;2022-10-16T12:17:00;-24349.13;;;19.12;nan
7105;BME280;3594;42.152;24.714;2022-10-16T12:19:29;-24340.34;;;18.80;nan
7105;BME280;3594;42.152;24.714;2022-10-16T12:22:01;-24347.44;;;19.06;nan
7105;BME280;3594;42.152;24.714;2022-10-16T12:24:38;-24348.00;;;19.08;nan
7105;BME280;3594;42.152;24.714;2022-10-16T12:27:06;-24347.19;;;19.05;nan
7105;BME280;3594;42.152;24.714;2022-10-16T12:29:38;-24344.81;;;18.96;nan
7105;BME280;3594;42.152;24.714;2022-10-16T12:32:24;-24348.69;;;19.10;nan
7105;BME280;3594;42.152;24.714;2022-10-16T12:34:52;-24347.59;;;19.06;nan
7105;BME280;3594;42.152;24.714;2022-10-16T12:37:23;-24348.16;;;19.08;nan
7105;BME280;3594;42.152;24.714;2022-10-16T12:39:51;-24352.19;;;19.23;nan
7105;BME280;3594;42.152;24.714;2022-10-16T12:44:54;-24358.84;;;19.47;nan
7105;BME280;3594;42.152;24.714;2022-10-16T12:49:56;-24351.06;;;19.19;nan
7105;BME280;3594;42.152;24.714;2022-10-16T12:52:47;-24346.75;;;19.03;nan
7105;BME280;3594;42.152;24.714;2022-10-16T12:55:20;-24339.94;;;18.78;nan
7105;BME280;3594;42.152;24.714;2022-10-16T13:00:44;-24348.56;;;19.10;nan
7105;BME280;3594;42.152;24.714;2022-10-16T13:05:57;-24357.47;;;19.42;nan
7105;BME280;3594;42.152;24.714;2022-10-16T13:14:09;-24354.81;;;19.32;nan
7105;BME280;3594;42.152;24.714;2022-10-16T13:19:46;-24350.50;;;19.17;nan
7105;BME280;3594;42.152;24.714;2022-10-16T13:27:23;-24348.44;;;19.09;nan
7105;BME280;3594;42.152;24.714;2022-10-16T13:30:01;-24355.38;;;19.34;nan
7105;BME280;3594;42.152;24.714;2022-10-16T13:32:27;-24361.09;;;19.55;nan
7105;BME280;3594;42.152;24.714;2022-10-16T13:34:53;-24360.25;;;19.52;nan
7105;BME280;3594;42.152;24.714;2022-10-16T13:37:21;-24361.91;;;19.58;nan
7105;BME280;3594;42.152;24.714;2022-10-16T13:39:47;-24355.81;;;19.36;nan
7105;BME280;3594;42.152;24.714;2022-10-16T13:42:18;-24351.75;;;19.21;nan
7105;BME280;3594;42.152;24.714;2022-10-16T13:44:49;-24358.84;;;19.47;nan
7105;BME280;3594;42.152;24.714;2022-10-16T13:47:27;-24356.50;;;19.38;nan
7105;BME280;3594;42.152;24.714;2022-10-16T13:50:14;-24361.50;;;19.57;nan
7105;BME280;3594;42.152;24.714;2022-10-16T13:52:40;-24356.63;;;19.39;nan
7105;BME280;3594;42.152;24.714;2022-10-16T13:55:14;-24350.50;;;19.17;nan
7105;BME280;3594;42.152;24.714;2022-10-16T13:57:41;-24357.75;;;19.43;nan
7105;BME280;3594;42.152;24.714;2022-10-16T14:00:25;-24345.91;;;19.00;nan
7105;BME280;3594;42.152;24.714;2022-10-16T14:03:07;-24347.44;;;19.06;nan
7105;BME280;3594;42.152;24.714;2022-10-16T14:05:33;-24337.56;;;18.70;nan
7105;BME280;3594;42.152;24.714;2022-10-16T14:07:59;-24338.81;;;18.74;nan
7105;BME280;3594;42.152;24.714;2022-10-16T14:10:28;-24343.00;;;18.89;nan
7105;BME280;3594;42.152;24.714;2022-10-16T14:13:03;-24347.03;;;19.04;nan
7105;BME280;3594;42.152;24.714;2022-10-16T14:15:31;-24348.16;;;19.08;nan
7105;BME280;3594;42.152;24.714;2022-10-16T14:17:57;-24337.84;;;18.71;nan
7105;BME280;3594;42.152;24.714;2022-10-16T14:20:26;-24336.88;;;18.67;nan
7105;BME280;3594;42.152;24.714;2022-10-16T14:23:03;-24337.44;;;18.69;nan
7105;BME280;3594;42.152;24.714;2022-10-16T14:25:32;-24334.63;;;18.59;nan
7105;BME280;3594;42.152;24.714;2022-10-16T14:30:24;-24337.28;;;18.69;nan
7105;BME280;3594;42.152;24.714;2022-10-16T14:33:03;-24315.13;;;17.88;nan
7105;BME280;3594;42.152;24.714;2022-10-16T14:35:35;-24334.09;;;18.57;nan
7105;BME280;3594;42.152;24.714;2022-10-16T14:38:03;-24339.09;;;18.75;nan
7105;BME280;3594;42.152;24.714;2022-10-16T14:40:31;-24332.00;;;18.49;nan
7105;BME280;3594;42.152;24.714;2022-10-16T14:42:58;-24335.47;;;18.62;nan
7105;BME280;3594;42.152;24.714;2022-10-16T14:45:27;-24334.63;;;18.59;nan
7105;BME280;3594;42.152;24.714;2022-10-16T14:47:56;-24329.63;;;18.41;nan
7105;BME280;3594;42.152;24.714;2022-10-16T14:50:22;-24330.03;;;18.42;nan
7105;BME280;3594;42.152;24.714;2022-10-16T14:52:47;-24323.34;;;18.18;nan
7105;BME280;3594;42.152;24.714;2022-10-16T14:55:13;-24320.28;;;18.07;nan
7105;BME280;3594;42.152;24.714;2022-10-16T14:57:39;-24320.97;;;18.09;nan
7105;BME280;3594;42.152;24.714;2022-10-16T15:00:14;-24322.81;;;18.16;nan
7105;BME280;3594;42.152;24.714;2022-10-16T15:02:41;-24322.25;;;18.14;nan
7105;BME280;3594;42.152;24.714;2022-10-16T15:05:23;-24319.31;;;18.03;nan
7105;BME280;3594;42.152;24.714;2022-10-16T15:07:50;-24311.63;;;17.76;nan
7105;BME280;3594;42.152;24.714;2022-10-16T15:10:17;-24312.34;;;17.78;nan
7105;BME280;3594;42.152;24.714;2022-10-16T15:12:43;-24310.81;;;17.73;nan
7105;BME280;3594;42.152;24.714;2022-10-16T15:15:37;-24311.50;;;17.75;nan
7105;BME280;3594;42.152;24.714;2022-10-16T15:18:03;-24299.78;;;17.33;nan
7105;BME280;3594;42.152;24.714;2022-10-16T15:20:35;-24304.81;;;17.51;nan
7105;BME280;3594;42.152;24.714;2022-10-16T15:23:02;-24303.97;;;17.48;nan
7105;BME280;3594;42.152;24.714;2022-10-16T15:27:57;-24294.06;;;17.12;nan
7105;BME280;3594;42.152;24.714;2022-10-16T15:30:23;-24289.59;;;16.96;nan
7105;BME280;3594;42.152;24.714;2022-10-16T15:32:48;-24288.88;;;16.93;nan
7105;BME280;3594;42.152;24.714;2022-10-16T15:35:13;-24287.34;;;16.88;nan
7105;BME280;3594;42.152;24.714;2022-10-16T15:37:39;-24285.81;;;16.82;nan
7105;BME280;3594;42.152;24.714;2022-10-16T15:40:05;-24279.13;;;16.58;nan
7105;BME280;3594;42.152;24.714;2022-10-16T15:42:30;-24276.88;;;16.50;nan
7105;BME280;3594;42.152;24.714;2022-10-16T15:44:56;-24274.50;;;16.41;nan